Time;durP1;ratioP1;P1;durP2;ratioP2;P2;SDS_P1;SDS_P2;PMS_P1;PMS_P2;Temp;Humidity;BMP_temperature;BMP_pressure;BME280_temperature;BME280_humidity;BME280_pressure;Samples;Min_cycle;Max_cycle;Signal;HPM_P1;HPM_P2
2023/06/05 00:00:34;;;;;;;67.40;4.47;;;16.20;1.00;;;;;;4846917;29;20537;-79
2023/06/05 00:02:59;;;;;;;67.87;4.83;;;16.20;1.00;;;;;;4846374;29;20630;-80
2023/06/05 00:05:26;;;;;;;68.70;4.83;;;16.20;1.00;;;;;;4846540;29;20172;-79
2023/06/05 00:07:52;;;;;;;67.20;4.30;;;16.20;1.00;;;;;;4846163;29;20192;-81
2023/06/05 00:10:20;;;;;;;68.07;5.03;;;16.30;1.00;;;;;;4846112;29;20421;-80
2023/06/05 00:12:46;;;;;;;70.93;4.60;;;16.30;1.00;;;;;;4845171;29;20417;-79
2023/06/05 00:15:12;;;;;;;67.20;4.80;;;16.10;1.00;;;;;;4846039;29;20857;-80
2023/06/05 00:17:38;;;;;;;70.37;4.70;;;16.00;1.00;;;;;;4844721;29;20441;-79
2023/06/05 00:20:05;;;;;;;66.47;4.17;;;15.80;1.00;;;;;;4846066;29;20674;-79
2023/06/05 00:22:33;;;;;;;67.47;4.97;;;15.60;1.00;;;;;;4846063;29;20164;-80
2023/06/05 00:24:59;;;;;;;70.63;5.57;;;15.50;1.00;;;;;;4845779;29;20921;-80
2023/06/05 00:27:25;;;;;;;67.13;3.90;;;15.60;1.00;;;;;;4844382;29;20449;-79
2023/06/05 00:29:50;;;;;;;68.17;5.17;;;15.70;1.00;;;;;;4846197;29;20451;-80
2023/06/05 00:32:16;;;;;;;68.20;4.03;;;15.80;1.00;;;;;;4846341;29;20203;-80
2023/06/05 00:34:42;;;;;;;68.30;4.87;;;15.80;1.00;;;;;;4844539;29;20661;-79
2023/06/05 00:37:08;;;;;;;70.07;4.43;;;15.70;1.00;;;;;;4844425;29;20203;-80
2023/06/05 00:39:34;;;;;;;68.77;3.97;;;15.70;1.00;;;;;;4844887;29;20266;-80
2023/06/05 00:41:59;;;;;;;67.67;4.93;;;15.70;1.00;;;;;;4844475;29;20452;-80
2023/06/05 00:44:25;;;;;;;67.57;4.93;;;15.60;1.00;;;;;;4844360;29;20179;-79
2023/06/05 00:46:52;;;;;;;67.07;4.40;;;15.50;1.00;;;;;;4845761;29;20686;-80
2023/06/05 00:49:19;;;;;;;67.37;5.00;;;15.30;1.00;;;;;;4844589;29;20232;-80
2023/06/05 00:51:45;;;;;;;67.40;4.80;;;15.20;1.00;;;;;;4860011;29;20443;-79
2023/06/05 00:54:13;;;;;;;68.90;4.47;;;15.30;1.00;;;;;;4845713;29;20424;-79
2023/06/05 00:56:42;;;;;;;66.37;5.03;;;15.30;1.00;;;;;;4844224;29;20528;-80
2023/06/05 00:59:08;;;;;;;68.93;6.00;;;15.30;1.00;;;;;;4846343;29;20409;-81
2023/06/05 01:01:34;;;;;;;68.57;5.90;;;15.10;1.00;;;;;;4847466;29;20911;-81
2023/06/05 01:04:00;;;;;;;68.07;5.47;;;15.10;1.00;;;;;;4845791;29;20405;-81
2023/06/05 01:06:30;;;;;;;69.77;5.67;;;15.20;1.00;;;;;;4846153;29;20960;-81
2023/06/05 01:08:57;;;;;;;68.83;6.03;;;15.30;1.00;;;;;;4861655;29;20398;-81
2023/06/05 01:11:40;;;;;;;69.50;7.10;;;15.10;1.00;;;;;;4846889;29;20772;-81
2023/06/05 01:14:20;;;;;;;68.27;7.10;;;15.00;1.00;;;;;;4845869;29;20404;-81
2023/06/05 01:16:49;;;;;;;67.57;7.07;;;14.80;1.00;;;;;;4845339;29;20447;-81
2023/06/05 01:19:14;;;;;;;68.20;8.57;;;14.70;1.00;;;;;;4844471;29;20409;-81
2023/06/05 01:21:41;;;;;;;68.20;8.17;;;14.60;1.00;;;;;;4844279;29;21079;-80
2023/06/05 01:24:07;;;;;;;69.07;9.50;;;14.60;3.10;;;;;;4844024;29;20171;-80
2023/06/05 01:27:00;;;;;;;69.27;7.50;;;14.80;1.00;;;;;;4859856;29;20445;-81
2023/06/05 01:29:41;;;;;;;71.27;7.67;;;14.70;1.00;;;;;;4836518;29;20481;-80
2023/06/05 01:32:15;;;;;;;68.57;7.70;;;14.60;1.00;;;;;;4845600;29;20424;-80
2023/06/05 01:34:43;;;;;;;67.37;8.07;;;14.60;1.00;;;;;;4843696;29;20554;-81
2023/06/05 01:37:18;;;;;;;70.53;7.87;;;14.50;1.00;;;;;;4859396;29;20444;-80
2023/06/05 01:39:46;;;;;;;67.70;7.37;;;14.50;1.70;;;;;;4844666;29;20399;-80
2023/06/05 01:42:14;;;;;;;67.57;7.20;;;14.40;5.90;;;;;;4845436;29;20508;-80
2023/06/05 01:44:41;;;;;;;70.50;7.10;;;14.20;7.60;;;;;;4843336;29;20514;-79
2023/06/05 01:47:08;;;;;;;67.90;6.83;;;14.10;12.30;;;;;;4843822;29;20450;-81
2023/06/05 01:49:34;;;;;;;68.87;7.40;;;14.10;10.20;;;;;;4843591;29;20433;-81
2023/06/05 01:52:00;;;;;;;67.70;7.33;;;14.20;8.40;;;;;;4843411;29;20438;-80
2023/06/05 01:54:26;;;;;;;66.60;6.53;;;14.10;9.60;;;;;;4843062;29;20435;-80
2023/06/05 01:56:55;;;;;;;68.73;6.40;;;14.10;7.20;;;;;;4844106;29;20246;-80
2023/06/05 01:59:21;;;;;;;67.10;7.20;;;14.00;10.40;;;;;;4845692;29;20173;-80
2023/06/05 02:01:47;;;;;;;68.30;7.20;;;14.00;12.40;;;;;;4847150;29;20536;-81
2023/06/05 02:04:18;;;;;;;72.40;6.80;;;13.80;14.10;;;;;;4850280;29;20433;-81
2023/06/05 02:06:44;;;;;;;67.57;6.90;;;13.70;17.40;;;;;;4846520;29;20441;-82
2023/06/05 02:09:10;;;;;;;68.07;7.27;;;13.60;19.30;;;;;;4845824;29;20407;-81
2023/06/05 02:11:42;;;;;;;70.00;7.40;;;13.60;19.90;;;;;;4844476;29;20424;-81
2023/06/05 02:14:08;;;;;;;67.80;6.10;;;13.60;20.20;;;;;;4845569;29;20178;-81
2023/06/05 02:16:36;;;;;;;67.47;6.57;;;13.60;20.00;;;;;;4846351;29;20802;-81
2023/06/05 02:19:03;;;;;;;68.00;6.10;;;13.60;19.50;;;;;;4845753;29;20850;-81
2023/06/05 02:21:32;;;;;;;67.37;7.10;;;13.50;20.80;;;;;;4846057;29;20410;-81
2023/06/05 02:24:02;;;;;;;66.97;7.20;;;13.60;17.30;;;;;;4844776;29;20954;-82
2023/06/05 02:26:28;;;;;;;69.00;6.60;;;13.60;17.10;;;;;;4844628;29;20984;-81
2023/06/05 02:28:54;;;;;;;70.17;6.10;;;13.60;16.40;;;;;;4844363;29;20508;-81
2023/06/05 02:31:24;;;;;;;66.10;5.70;;;13.50;18.30;;;;;;4844609;29;20418;-81
2023/06/05 02:33:53;;;;;;;67.10;5.40;;;13.40;19.80;;;;;;4844459;29;20420;-81
2023/06/05 02:36:19;;;;;;;66.30;5.67;;;13.40;22.80;;;;;;4845292;29;20462;-81
2023/06/05 02:38:48;;;;;;;72.10;6.90;;;13.30;25.90;;;;;;4844181;29;20425;-81
2023/06/05 02:41:16;;;;;;;68.40;6.60;;;13.20;26.10;;;;;;4845275;29;20430;-81
2023/06/05 02:43:42;;;;;;;66.97;6.60;;;13.20;28.60;;;;;;4859906;29;20432;-81
2023/06/05 02:46:07;;;;;;;71.13;6.67;;;13.20;27.20;;;;;;4844036;29;20508;-81
2023/06/05 02:48:33;;;;;;;68.90;6.53;;;13.30;25.30;;;;;;4844092;29;20180;-81
2023/06/05 02:50:58;;;;;;;66.93;7.47;;;13.20;26.50;;;;;;4859358;29;20522;-81
2023/06/05 02:53:24;;;;;;;67.37;7.20;;;13.10;30.00;;;;;;4844068;29;20608;-81
2023/06/05 02:55:53;;;;;;;70.80;6.47;;;13.20;27.60;;;;;;4843920;29;20232;-81
2023/06/05 02:58:21;;;;;;;67.00;7.17;;;13.10;26.00;;;;;;4847086;29;20512;-81
2023/06/05 03:00:50;;;;;;;67.00;6.50;;;13.00;29.10;;;;;;4848926;29;20410;-81
2023/06/05 03:03:16;;;;;;;66.70;6.00;;;13.00;31.40;;;;;;4848765;29;20417;-81
2023/06/05 03:05:44;;;;;;;67.00;6.90;;;13.20;26.90;;;;;;4862909;29;20424;-81
2023/06/05 03:08:10;;;;;;;75.20;7.27;;;13.20;26.10;;;;;;4847472;29;20445;-81
2023/06/05 03:10:36;;;;;;;68.00;6.53;;;13.10;27.30;;;;;;4848521;29;20420;-81
2023/06/05 03:13:02;;;;;;;68.13;8.73;;;12.90;29.80;;;;;;4846914;29;20421;-81
2023/06/05 03:15:28;;;;;;;67.27;7.20;;;12.80;34.80;;;;;;4846951;29;20464;-81
2023/06/05 03:17:56;;;;;;;67.17;8.00;;;12.80;38.30;;;;;;4846672;29;20992;-81
2023/06/05 03:20:22;;;;;;;68.80;9.17;;;12.80;41.60;;;;;;4846616;29;20187;-80
2023/06/05 03:22:48;;;;;;;72.87;13.50;;;12.80;41.50;;;;;;4861853;29;20410;-80
2023/06/05 03:25:14;;;;;;;68.53;9.80;;;12.60;45.20;;;;;;4845901;29;20229;-80
2023/06/05 03:27:41;;;;;;;70.60;11.43;;;12.60;47.10;;;;;;4845957;29;20449;-81
2023/06/05 03:30:08;;;;;;;68.27;10.03;;;12.60;48.30;;;;;;4846101;29;20481;-80
2023/06/05 03:32:34;;;;;;;72.23;12.17;;;12.60;47.30;;;;;;4845790;29;20523;-80
2023/06/05 03:35:00;;;;;;;69.70;11.40;;;12.60;44.70;;;;;;4846798;29;20917;-79
2023/06/05 03:37:25;;;;;;;68.70;10.50;;;12.60;44.20;;;;;;4847103;29;20516;-80
2023/06/05 03:39:51;;;;;;;70.03;12.50;;;12.70;41.80;;;;;;4847103;29;20172;-79
2023/06/05 03:42:20;;;;;;;68.27;10.80;;;12.70;44.30;;;;;;4846785;29;20175;-80
2023/06/05 03:44:46;;;;;;;70.00;16.30;;;12.70;48.30;;;;;;4845555;29;20272;-80
2023/06/05 03:47:14;;;;;;;71.47;15.47;;;12.70;51.60;;;;;;4846482;29;20870;-80
2023/06/05 03:49:45;;;;;;;73.97;20.53;;;12.70;52.20;;;;;;4845370;29;20180;-80
2023/06/05 03:52:14;;;;;;;72.00;18.20;;;12.60;57.40;;;;;;4890181;23;21022;-76
2023/06/05 03:54:40;;;;;;;72.80;22.20;;;12.60;57.80;;;;;;4881701;29;20455;-76
2023/06/05 03:57:12;;;;;;;72.73;20.93;;;12.50;61.60;;;;;;4881408;29;20435;-76
2023/06/05 03:59:41;;;;;;;72.10;17.17;;;12.60;62.30;;;;;;4881749;29;20394;-76
2023/06/05 04:02:09;;;;;;;76.97;19.70;;;12.70;59.50;;;;;;4881381;29;20954;-76
2023/06/05 04:04:35;;;;;;;73.70;21.80;;;12.70;58.20;;;;;;4881332;29;20404;-76
2023/06/05 04:07:01;;;;;;;77.27;25.03;;;12.80;61.70;;;;;;4881423;29;20454;-76
2023/06/05 04:09:26;;;;;;;75.53;24.30;;;12.80;61.40;;;;;;4880754;29;20166;-76
2023/06/05 04:11:52;;;;;;;77.60;30.30;;;12.80;63.50;;;;;;4881534;29;20494;-76
2023/06/05 04:14:18;;;;;;;77.27;29.63;;;12.80;63.10;;;;;;4881646;29;20204;-76
2023/06/05 04:16:43;;;;;;;77.17;31.53;;;12.90;72.10;;;;;;4880986;29;20205;-76
2023/06/05 04:19:10;;;;;;;79.33;36.00;;;12.90;71.20;;;;;;4881116;29;20174;-76
2023/06/05 04:21:40;;;;;;;79.70;41.90;;;12.90;74.80;;;;;;4881107;29;20192;-76
2023/06/05 04:24:09;;;;;;;82.57;39.00;;;12.90;80.60;;;;;;4880939;29;20492;-76
2023/06/05 04:26:39;;;;;;;82.47;41.43;;;12.90;83.90;;;;;;4880887;29;20521;-76
2023/06/05 04:29:15;;;;;;;77.73;38.63;;;13.00;82.20;;;;;;4880884;29;20916;-76
2023/06/05 04:31:45;;;;;;;80.53;40.93;;;13.10;80.90;;;;;;4881199;29;20474;-76
2023/06/05 04:34:12;;;;;;;86.03;48.50;;;13.10;87.30;;;;;;4880844;29;20410;-76
2023/06/05 04:36:37;;;;;;;78.80;37.33;;;13.20;88.30;;;;;;4879419;29;20463;-76
2023/06/05 04:39:04;;;;;;;79.17;40.60;;;13.40;91.30;;;;;;4880778;29;20930;-76
2023/06/05 04:41:32;;;;;;;75.43;28.37;;;13.60;84.30;;;;;;4880708;29;20247;-76
2023/06/05 04:43:59;;;;;;;74.00;22.10;;;13.90;76.20;;;;;;4880681;29;20400;-76
2023/06/05 04:46:26;;;;;;;74.90;18.00;;;14.20;69.60;;;;;;4880561;29;20527;-76
2023/06/05 04:48:55;;;;;;;69.67;14.97;;;14.50;62.10;;;;;;4880893;29;20412;-76
2023/06/05 04:51:21;;;;;;;69.80;10.20;;;14.70;59.40;;;;;;4879171;29;20437;-76
2023/06/05 04:53:50;;;;;;;71.30;7.90;;;15.20;50.40;;;;;;4880804;29;20465;-76
2023/06/05 04:56:16;;;;;;;69.37;7.40;;;15.50;32.30;;;;;;4879087;29;20499;-76
2023/06/05 04:58:42;;;;;;;70.47;6.90;;;15.80;29.00;;;;;;4880442;29;20416;-76
2023/06/05 05:01:08;;;;;;;70.70;6.33;;;16.10;22.40;;;;;;4880373;29;20408;-76
2023/06/05 05:03:33;;;;;;;67.60;6.80;;;16.30;16.50;;;;;;4880582;29;20202;-76
2023/06/05 05:06:00;;;;;;;66.77;6.47;;;16.50;11.60;;;;;;4880182;29;20237;-76
2023/06/05 05:08:27;;;;;;;73.10;8.17;;;16.60;5.60;;;;;;4880279;29;20170;-76
2023/06/05 05:10:53;;;;;;;69.10;7.00;;;16.50;5.20;;;;;;4878974;29;20562;-76
2023/06/05 05:13:19;;;;;;;70.00;9.20;;;16.60;4.70;;;;;;4880201;29;20889;-76
2023/06/05 05:15:46;;;;;;;77.47;8.50;;;16.60;2.50;;;;;;4880158;29;20458;-76
2023/06/05 05:18:12;;;;;;;68.67;7.93;;;16.60;4.90;;;;;;4880068;29;20781;-76
2023/06/05 05:20:38;;;;;;;68.90;7.67;;;16.40;7.40;;;;;;4879563;29;20524;-76
2023/06/05 05:23:07;;;;;;;70.73;9.10;;;16.40;10.70;;;;;;4878727;29;20194;-76
2023/06/05 05:25:33;;;;;;;70.57;8.70;;;16.30;12.60;;;;;;4879993;29;20506;-76
2023/06/05 05:27:58;;;;;;;69.07;9.00;;;16.30;13.60;;;;;;4880767;29;20514;-76
2023/06/05 05:30:24;;;;;;;74.57;10.40;;;16.40;11.70;;;;;;4880148;29;20159;-76
2023/06/05 05:32:49;;;;;;;70.60;8.97;;;16.40;12.90;;;;;;4879879;29;20171;-77
2023/06/05 05:35:15;;;;;;;69.97;9.07;;;16.50;8.20;;;;;;4880040;29;20555;-76
2023/06/05 05:37:41;;;;;;;71.47;8.53;;;16.50;11.70;;;;;;4879752;29;20695;-76
2023/06/05 05:40:07;;;;;;;73.07;9.20;;;16.40;14.00;;;;;;4879800;29;20190;-76
2023/06/05 05:42:32;;;;;;;72.17;9.00;;;16.30;15.80;;;;;;4879764;29;20171;-77
2023/06/05 05:44:58;;;;;;;72.80;7.83;;;16.20;15.30;;;;;;4879679;29;20507;-76
2023/06/05 05:47:24;;;;;;;70.30;9.07;;;16.20;18.80;;;;;;4879606;29;20584;-77
2023/06/05 05:49:49;;;;;;;70.63;9.40;;;16.20;17.30;;;;;;4879693;29;20181;-77
2023/06/05 05:52:15;;;;;;;70.87;11.50;;;16.10;21.70;;;;;;4879541;29;20190;-76
2023/06/05 05:54:41;;;;;;;71.40;12.03;;;15.90;27.00;;;;;;4878247;29;20177;-76
2023/06/05 05:57:07;;;;;;;78.63;13.50;;;15.90;28.70;;;;;;4879448;29;20508;-76
2023/06/05 05:59:32;;;;;;;75.43;13.90;;;15.80;31.90;;;;;;4879497;29;20167;-76
2023/06/05 06:02:00;;;;;;;71.83;12.47;;;15.90;30.80;;;;;;4879963;29;20425;-76
2023/06/05 06:04:26;;;;;;;75.93;11.40;;;16.00;27.30;;;;;;4878222;29;20175;-76
2023/06/05 06:06:52;;;;;;;71.17;10.83;;;16.10;25.10;;;;;;4879390;29;20446;-76
2023/06/05 06:09:18;;;;;;;71.53;10.60;;;16.20;24.70;;;;;;4879356;29;20780;-76
2023/06/05 06:11:44;;;;;;;69.30;9.27;;;16.20;23.30;;;;;;4879909;29;20498;-76
2023/06/05 06:14:10;;;;;;;78.03;8.93;;;16.40;16.10;;;;;;4879570;29;20797;-76
2023/06/05 06:16:40;;;;;;;68.97;10.70;;;16.40;17.00;;;;;;4879264;29;20210;-76
2023/06/05 06:19:05;;;;;;;70.73;8.50;;;16.40;17.80;;;;;;4879580;29;20406;-76
2023/06/05 06:21:31;;;;;;;71.37;10.70;;;16.50;16.40;;;;;;4879291;29;20404;-76
2023/06/05 06:23:57;;;;;;;70.03;9.77;;;16.40;17.00;;;;;;4879210;29;20163;-76
2023/06/05 06:26:23;;;;;;;70.10;9.40;;;16.50;16.20;;;;;;4879486;29;20243;-76
2023/06/05 06:28:49;;;;;;;70.37;9.47;;;16.60;17.40;;;;;;4879233;29;20410;-76
2023/06/05 06:31:14;;;;;;;69.27;10.00;;;16.40;13.70;;;;;;4879704;29;20516;-76
2023/06/05 06:33:40;;;;;;;73.17;9.03;;;16.50;13.40;;;;;;4881854;29;20215;-76
2023/06/05 06:36:06;;;;;;;70.00;9.73;;;16.60;11.50;;;;;;4883356;29;20457;-76
2023/06/05 06:38:32;;;;;;;72.70;10.37;;;16.70;9.80;;;;;;4882926;29;20587;-76
2023/06/05 06:40:58;;;;;;;70.80;9.63;;;16.70;7.30;;;;;;4883133;29;20179;-76
2023/06/05 06:43:25;;;;;;;72.07;10.40;;;16.70;8.50;;;;;;4883124;29;20500;-76
2023/06/05 06:45:52;;;;;;;80.40;10.97;;;16.80;7.20;;;;;;4883042;29;20481;-76
2023/06/05 06:48:18;;;;;;;70.50;10.03;;;16.80;9.20;;;;;;4882657;29;20434;-76
2023/06/05 06:50:44;;;;;;;73.37;10.80;;;16.80;11.50;;;;;;4882520;29;20859;-76
2023/06/05 06:53:10;;;;;;;73.53;11.40;;;16.90;11.30;;;;;;4883145;29;20403;-76
2023/06/05 06:55:36;;;;;;;71.43;9.03;;;16.90;7.80;;;;;;4882745;29;20458;-76
2023/06/05 06:58:02;;;;;;;69.60;11.60;;;17.00;5.50;;;;;;4882509;29;20717;-76
2023/06/05 07:00:28;;;;;;;73.60;11.03;;;17.10;4.40;;;;;;4882512;29;20942;-76
2023/06/05 07:02:53;;;;;;;69.50;11.10;;;17.10;5.20;;;;;;4882731;29;20487;-76
2023/06/05 07:05:22;;;;;;;80.93;10.50;;;17.10;1.20;;;;;;4882712;29;20177;-76
2023/06/05 07:07:48;;;;;;;74.33;11.60;;;17.10;1.00;;;;;;4882399;29;20191;-76
2023/06/05 07:10:13;;;;;;;71.07;11.30;;;17.20;5.80;;;;;;4882361;29;20407;-76
2023/06/05 07:12:39;;;;;;;72.17;11.57;;;17.30;1.40;;;;;;4882331;29;20202;-76
2023/06/05 07:15:05;;;;;;;71.87;12.17;;;17.40;1.00;;;;;;4882321;29;20194;-76
2023/06/05 07:17:31;;;;;;;72.97;12.30;;;17.50;1.00;;;;;;4882122;29;20215;-76
2023/06/05 07:19:57;;;;;;;72.27;12.77;;;17.50;1.00;;;;;;4882703;29;20807;-76
2023/06/05 07:22:24;;;;;;;71.93;10.57;;;17.50;1.00;;;;;;4882166;29;20181;-76
2023/06/05 07:24:50;;;;;;;74.53;10.53;;;17.40;1.00;;;;;;4882262;29;20415;-76
2023/06/05 07:27:16;;;;;;;69.90;10.67;;;17.50;1.00;;;;;;4882001;29;20511;-76
2023/06/05 07:29:42;;;;;;;74.60;11.90;;;17.50;1.00;;;;;;4882045;29;20494;-76
2023/06/05 07:32:08;;;;;;;75.27;11.10;;;17.60;1.00;;;;;;4881995;29;20842;-76
2023/06/05 07:34:37;;;;;;;77.70;10.70;;;17.70;1.00;;;;;;4881839;29;20258;-76
2023/06/05 07:37:02;;;;;;;74.10;9.77;;;17.70;1.00;;;;;;4881830;29;20252;-76
2023/06/05 07:39:28;;;;;;;70.87;11.57;;;17.70;1.00;;;;;;4881860;29;20403;-76
2023/06/05 07:41:54;;;;;;;72.10;9.87;;;17.80;1.00;;;;;;4881781;29;20439;-76
2023/06/05 07:44:21;;;;;;;74.07;9.20;;;17.70;1.00;;;;;;4879685;29;20170;-76
2023/06/05 07:46:48;;;;;;;76.60;8.63;;;17.90;1.00;;;;;;4881673;29;20183;-76
2023/06/05 07:49:15;;;;;;;69.90;9.50;;;18.00;1.00;;;;;;4881823;29;20431;-76
2023/06/05 07:51:42;;;;;;;73.90;9.07;;;18.00;1.00;;;;;;4881531;29;20465;-76
2023/06/05 07:54:11;;;;;;;72.57;9.83;;;18.10;1.00;;;;;;4881871;29;20455;-76
2023/06/05 07:56:38;;;;;;;73.37;9.07;;;18.10;1.00;;;;;;4881397;29;20463;-76
2023/06/05 07:59:05;;;;;;;71.70;8.30;;;18.10;1.00;;;;;;4881759;29;20431;-76
2023/06/05 08:01:36;;;;;;;73.20;9.23;;;18.20;1.00;;;;;;4881374;29;20942;-76
2023/06/05 08:04:06;;;;;;;70.00;8.07;;;18.30;1.00;;;;;;4881390;29;20392;-76
2023/06/05 08:06:32;;;;;;;71.40;7.73;;;18.40;1.00;;;;;;4881547;29;20443;-76
2023/06/05 08:09:01;;;;;;;69.60;7.40;;;18.40;1.00;;;;;;4881869;29;20763;-76
2023/06/05 08:11:28;;;;;;;72.63;7.40;;;18.50;1.00;;;;;;4881286;29;20506;-76
2023/06/05 08:13:54;;;;;;;68.87;7.53;;;18.50;1.00;;;;;;4879988;29;20459;-76
2023/06/05 08:16:20;;;;;;;69.73;7.40;;;18.60;1.00;;;;;;4881321;29;20462;-76
2023/06/05 08:18:46;;;;;;;71.23;7.20;;;18.70;1.00;;;;;;4881165;29;20521;-76
2023/06/05 08:21:12;;;;;;;71.20;8.47;;;18.70;1.00;;;;;;4881115;29;20170;-76
2023/06/05 08:23:38;;;;;;;69.83;6.60;;;18.80;1.00;;;;;;4881346;29;20412;-76
2023/06/05 08:26:10;;;;;;;70.70;7.10;;;18.90;1.00;;;;;;4881179;29;20930;-76
2023/06/05 08:28:40;;;;;;;74.33;6.90;;;19.00;1.00;;;;;;4881303;29;20156;-76
2023/06/05 08:31:06;;;;;;;74.93;7.20;;;19.00;1.00;;;;;;4881255;29;20403;-76
2023/06/05 08:33:34;;;;;;;71.37;6.90;;;19.10;1.00;;;;;;4881135;29;20419;-76
2023/06/05 08:36:00;;;;;;;69.50;5.77;;;19.10;1.00;;;;;;4880731;29;20458;-76
2023/06/05 08:38:25;;;;;;;69.53;6.30;;;19.20;1.00;;;;;;4879582;29;20419;-76
2023/06/05 08:40:59;;;;;;;69.27;5.30;;;19.30;1.00;;;;;;4880777;29;20983;-76
2023/06/05 08:43:25;;;;;;;73.53;6.00;;;19.40;1.00;;;;;;4880736;29;20147;-75
2023/06/05 08:45:54;;;;;;;72.00;4.97;;;19.40;1.00;;;;;;4880976;29;20996;-74
2023/06/05 08:48:21;;;;;;;71.10;5.30;;;19.40;1.00;;;;;;4880573;29;20728;-74
2023/06/05 08:50:48;;;;;;;70.57;4.73;;;19.50;1.00;;;;;;4880481;29;20427;-75
2023/06/05 08:53:17;;;;;;;68.10;4.57;;;19.60;1.00;;;;;;4881015;29;20408;-74
2023/06/05 08:55:45;;;;;;;72.13;4.87;;;19.70;1.00;;;;;;4880333;29;20443;-74
2023/06/05 08:58:12;;;;;;;72.73;4.20;;;19.90;1.00;;;;;;4880689;29;20828;-74
2023/06/05 09:00:38;;;;;;;68.73;4.47;;;20.00;1.00;;;;;;4880382;29;20796;-74
2023/06/05 09:03:05;;;;;;;70.53;5.00;;;20.20;1.00;;;;;;4880584;29;20407;-74
2023/06/05 09:05:31;;;;;;;70.07;4.77;;;20.20;1.00;;;;;;4880569;29;20438;-74
2023/06/05 09:07:58;;;;;;;75.80;4.20;;;20.40;1.00;;;;;;4880251;29;20558;-74
2023/06/05 09:10:26;;;;;;;68.97;4.30;;;20.50;1.00;;;;;;4880324;29;20667;-74
2023/06/05 09:13:03;;;;;;;70.90;4.73;;;20.50;1.00;;;;;;4880451;29;20412;-74
2023/06/05 09:15:34;;;;;;;68.67;4.47;;;20.60;1.00;;;;;;4880115;29;20477;-74
2023/06/05 09:18:08;;;;;;;73.93;5.00;;;20.70;1.00;;;;;;4880057;29;20421;-74
2023/06/05 09:20:35;;;;;;;68.20;4.10;;;20.70;1.00;;;;;;4880094;29;20918;-74
2023/06/05 09:23:02;;;;;;;68.53;4.40;;;20.80;1.00;;;;;;4881120;29;20991;-74
2023/06/05 09:25:50;;;;;;;69.87;4.60;;;21.00;1.00;;;;;;4880021;29;20407;-74
2023/06/05 09:28:17;;;;;;;71.20;4.53;;;21.20;1.00;;;;;;4880257;29;20426;-74
2023/06/05 09:30:57;;;;;;;70.20;4.63;;;21.30;1.00;;;;;;4880150;29;20419;-74
2023/06/05 09:33:24;;;;;;;68.87;4.80;;;21.40;1.00;;;;;;4879842;29;20424;-74
2023/06/05 09:36:05;;;;;;;69.23;4.47;;;21.50;1.00;;;;;;4879756;29;20537;-74
2023/06/05 09:38:31;;;;;;;72.30;4.67;;;21.80;1.00;;;;;;4879937;29;20392;-74
2023/06/05 09:41:07;;;;;;;68.37;4.10;;;21.90;1.00;;;;;;4880032;29;20763;-74
2023/06/05 09:43:34;;;;;;;68.73;4.37;;;22.10;1.00;;;;;;4880508;29;20902;-74
2023/06/05 09:46:07;;;;;;;70.40;4.43;;;22.40;1.00;;;;;;4879636;29;20900;-74
2023/06/05 09:48:33;;;;;;;70.07;4.30;;;22.50;1.00;;;;;;4879727;29;20919;-74
2023/06/05 09:51:17;;;;;;;77.43;4.83;;;22.60;1.00;;;;;;4952072;23;20483;-79
2023/06/05 09:54:07;;;;;;;75.87;4.87;;;22.90;1.00;;;;;;4881918;29;20171;-81
2023/06/05 09:56:34;;;;;;;72.60;4.50;;;23.10;1.00;;;;;;4882382;29;20463;-79
2023/06/05 09:59:01;;;;;;;70.23;4.37;;;23.40;1.00;;;;;;4882267;29;20408;-79
2023/06/05 10:01:30;;;;;;;70.57;4.83;;;23.50;1.00;;;;;;4882111;29;20423;-79
2023/06/05 10:04:21;;;;;;;70.40;6.13;;;23.50;1.00;;;;;;4880589;29;20419;-79
2023/06/05 10:06:48;;;;;;;76.13;9.37;;;23.70;1.00;;;;;;4880912;29;20445;-79
2023/06/05 10:09:14;;;;;;;71.70;11.33;;;24.00;1.00;;;;;;4883054;29;20784;-79
2023/06/05 10:11:41;;;;;;;73.20;12.20;;;24.20;1.00;;;;;;4881135;29;20427;-79
2023/06/05 10:14:09;;;;;;;73.67;12.60;;;24.20;1.00;;;;;;4882460;29;20439;-79
2023/06/05 10:16:36;;;;;;;73.03;16.00;;;24.20;1.00;;;;;;4882150;29;20459;-79
2023/06/05 10:19:03;;;;;;;73.00;15.43;;;24.40;1.00;;;;;;4882528;29;20408;-79
2023/06/05 10:21:29;;;;;;;75.90;14.60;;;24.60;1.00;;;;;;4881213;29;20403;-79
2023/06/05 10:24:11;;;;;;;75.87;10.80;;;24.80;1.00;;;;;;4882146;29;20425;-79
2023/06/05 10:27:11;;;;;;;71.50;7.20;;;25.10;1.00;;;;;;4882132;29;20210;-79
2023/06/05 10:29:55;;;;;;;72.73;4.60;;;25.30;1.00;;;;;;4880918;29;21043;-80
2023/06/05 10:32:29;;;;;;;71.10;4.63;;;25.40;1.00;;;;;;4882431;29;20393;-79
2023/06/05 10:35:16;;;;;;;70.70;5.10;;;25.40;1.00;;;;;;4880964;29;20454;-81
2023/06/05 10:38:01;;;;;;;69.73;3.77;;;25.40;1.00;;;;;;4882558;29;20521;-79
2023/06/05 10:40:26;;;;;;;74.30;3.70;;;25.40;1.00;;;;;;4882303;29;20401;-79
2023/06/05 10:42:52;;;;;;;68.87;3.77;;;25.60;1.00;;;;;;4881974;29;20412;-79
2023/06/05 10:45:34;;;;;;;70.97;3.63;;;25.60;1.00;;;;;;4882860;29;20898;-79
2023/06/05 10:48:00;;;;;;;69.80;3.87;;;25.90;1.00;;;;;;4882031;29;20248;-79
2023/06/05 10:50:27;;;;;;;70.60;3.53;;;26.10;1.00;;;;;;4880843;29;20415;-79
2023/06/05 10:52:57;;;;;;;70.30;3.10;;;26.30;1.00;;;;;;4880982;29;20415;-79
2023/06/05 10:55:24;;;;;;;69.47;3.57;;;26.60;1.00;;;;;;4882425;29;20446;-79
2023/06/05 10:58:24;;;;;;;68.37;3.00;;;26.80;1.00;;;;;;4880228;29;20438;-79
2023/06/05 11:01:22;;;;;;;70.70;3.67;;;26.50;1.00;;;;;;4851519;29;20423;-79
2023/06/05 11:03:56;;;;;;;70.17;3.33;;;26.70;1.00;;;;;;4850268;29;20415;-79
2023/06/05 11:06:22;;;;;;;68.90;2.97;;;26.80;1.00;;;;;;4881482;29;20431;-79
2023/06/05 11:09:14;;;;;;;71.70;4.00;;;27.00;1.00;;;;;;4881493;29;20434;-79
2023/06/05 11:12:00;;;;;;;74.73;3.77;;;27.10;1.00;;;;;;4880465;29;20911;-79
2023/06/05 11:14:45;;;;;;;69.97;3.00;;;27.20;1.00;;;;;;4882057;29;20450;-79
2023/06/05 11:17:33;;;;;;;69.97;3.27;;;27.00;1.00;;;;;;4881510;29;20586;-79
2023/06/05 11:20:07;;;;;;;70.87;3.23;;;27.10;1.00;;;;;;4885764;29;20394;-79
2023/06/05 11:22:33;;;;;;;68.67;3.20;;;27.00;1.00;;;;;;4885372;29;20487;-79
2023/06/05 11:25:16;;;;;;;69.37;3.60;;;27.00;1.00;;;;;;4886973;29;20411;-79
2023/06/05 11:27:44;;;;;;;70.93;3.10;;;27.00;1.00;;;;;;4886407;29;20483;-79
2023/06/05 11:30:13;;;;;;;69.20;3.43;;;27.10;1.00;;;;;;4886709;29;20460;-80
2023/06/05 11:32:39;;;;;;;71.10;3.57;;;26.90;1.00;;;;;;4886774;29;20407;-80
2023/06/05 11:35:05;;;;;;;70.10;3.23;;;27.30;1.00;;;;;;4885308;29;20454;-80
2023/06/05 11:37:34;;;;;;;78.10;3.67;;;27.50;1.00;;;;;;4886348;29;20186;-80
2023/06/05 11:40:08;;;;;;;69.27;3.67;;;27.90;1.00;;;;;;4887762;29;20404;-80
2023/06/05 11:42:41;;;;;;;69.60;3.23;;;28.10;1.00;;;;;;4885881;29;20761;-80
2023/06/05 11:45:11;;;;;;;68.97;2.93;;;28.50;1.00;;;;;;4884686;29;20419;-80
2023/06/05 11:47:37;;;;;;;70.53;3.43;;;28.40;1.00;;;;;;4885488;29;20439;-80
2023/06/05 11:50:10;;;;;;;68.47;3.27;;;28.60;1.00;;;;;;4885991;29;20423;-80
2023/06/05 11:52:36;;;;;;;71.30;3.50;;;28.90;1.00;;;;;;4886652;29;20438;-80
2023/06/05 11:55:29;;;;;;;69.50;3.37;;;29.00;1.00;;;;;;4885786;29;20451;-80
2023/06/05 11:57:55;;;;;;;70.17;3.27;;;29.30;1.00;;;;;;4886326;29;20430;-80
2023/06/05 12:00:26;;;;;;;70.03;3.10;;;29.10;1.00;;;;;;4949764;23;20491;-80
2023/06/05 12:02:52;;;;;;;68.43;3.27;;;28.80;1.00;;;;;;4885147;29;20567;-80
2023/06/05 12:05:18;;;;;;;68.77;3.37;;;28.90;1.00;;;;;;4886078;29;20415;-80
2023/06/05 12:07:44;;;;;;;69.00;3.07;;;29.10;1.00;;;;;;4886365;29;20803;-80
2023/06/05 12:10:10;;;;;;;69.57;4.00;;;28.90;1.00;;;;;;4885012;29;20707;-80
2023/06/05 12:12:53;;;;;;;68.70;3.20;;;28.90;1.00;;;;;;4885336;29;20187;-80
2023/06/05 12:15:20;;;;;;;68.83;3.23;;;29.30;1.00;;;;;;4884622;29;20178;-80
2023/06/05 12:17:51;;;;;;;69.33;3.53;;;29.20;1.00;;;;;;4884067;29;20777;-80
2023/06/05 12:20:20;;;;;;;70.50;3.50;;;29.30;1.00;;;;;;4884306;29;20408;-80
2023/06/05 12:22:46;;;;;;;69.37;2.80;;;29.30;1.00;;;;;;4884989;29;20435;-80
2023/06/05 12:25:19;;;;;;;69.57;3.00;;;29.40;1.00;;;;;;4885505;29;20422;-80
2023/06/05 12:27:45;;;;;;;70.00;3.47;;;29.40;1.00;;;;;;4885331;29;20490;-80
2023/06/05 12:30:12;;;;;;;72.50;3.37;;;29.50;1.00;;;;;;4883572;29;20507;-80
2023/06/05 12:32:43;;;;;;;70.57;3.40;;;29.60;1.00;;;;;;4884913;29;20475;-80
2023/06/05 12:35:19;;;;;;;69.67;3.33;;;29.60;1.00;;;;;;4884840;29;20447;-80
2023/06/05 12:37:47;;;;;;;68.87;3.10;;;29.70;1.00;;;;;;4883686;29;20454;-80
2023/06/05 12:40:13;;;;;;;68.73;3.20;;;29.70;1.00;;;;;;4883268;29;20423;-80
2023/06/05 12:42:40;;;;;;;72.50;3.93;;;29.80;1.00;;;;;;4884374;29;20439;-80
2023/06/05 12:45:07;;;;;;;69.17;3.70;;;29.50;1.00;;;;;;4885541;29;20407;-80
2023/06/05 12:47:37;;;;;;;68.77;4.10;;;29.00;1.00;;;;;;4885299;29;20510;-80